Hall, Montana
Current Conditions -  °F | °C
As of 1:53 AM on Sunday 23 Nov 2014 (Local Time) from KMSO Reporting Station
Scattered Clouds Scattered Clouds  
Wind Chill: 25°   Ceiling: Unl
Heat Index: 34°   Visibility: 10mi
Dew Point: 29°   Wind: 14mph
Humidity: 82%   Direction: 310°NW
Pressure: 29.91"   Gusts: NA
Location:  46.58°N, 113.19°W
Report Text: KMSO 230853Z AUTO 31012KT 10SM FEW070 SCT085 01/M02 A2991 RMK AO2 SLP149 T00111017 51026
Loading
Personal Weather Stations






























Interactive Weather Map New forecast layout! Learn more

10-Day Weather Forecast

Advertisements
Track Severe Weather on mobile